createdAt,value
2019-01-09T00:05:28.371Z,3.47
2019-01-09T00:11:32.734Z,2.57
2019-01-09T00:17:38.653Z,3.00
2019-01-09T00:23:44.605Z,1.73
2019-01-09T00:29:50.355Z,1.47
2019-01-09T00:35:56.256Z,1.73
2019-01-09T00:42:02.189Z,3.20
2019-01-09T00:48:07.900Z,3.67
2019-01-09T00:54:13.778Z,4.60
2019-01-09T01:00:20.939Z,5.60
2019-01-09T01:07:27.800Z,5.50
2019-01-09T01:14:14.493Z,6.43
2019-01-09T01:20:53.901Z,5.30
2019-01-09T01:27:19.460Z,3.93
2019-01-09T01:33:56.043Z,4.80
2019-01-09T01:40:29.610Z,3.73
2019-01-09T01:47:29.538Z,4.87
2019-01-09T01:54:31.221Z,4.33
2019-01-09T02:01:33.599Z,4.97
2019-01-09T02:08:42.630Z,5.07
2019-01-09T02:15:45.900Z,4.53
2019-01-09T02:22:58.813Z,4.33
2019-01-09T02:30:06.384Z,3.77
2019-01-09T02:36:13.551Z,4.20
2019-01-09T02:42:19.984Z,4.77
2019-01-09T02:48:26.315Z,3.60
2019-01-09T02:54:32.069Z,3.87
2019-01-09T03:00:37.779Z,5.70
2019-01-09T03:06:43.588Z,5.80
2019-01-09T03:12:49.519Z,5.03
2019-01-09T03:18:55.287Z,4.27
2019-01-09T03:25:01.303Z,4.93
2019-01-09T03:31:07.404Z,5.20
2019-01-09T03:37:13.166Z,4.80
2019-01-09T03:43:18.899Z,5.07
2019-01-09T03:49:24.826Z,4.73
2019-01-09T03:55:30.647Z,4.40
2019-01-09T04:01:36.539Z,5.87
2019-01-09T04:07:42.317Z,5.40
2019-01-09T04:13:48.227Z,4.60
2019-01-09T04:19:54.030Z,4.73
2019-01-09T04:25:59.979Z,4.30
2019-01-09T04:32:05.698Z,5.07
2019-01-09T04:38:11.657Z,4.37
2019-01-09T04:44:17.453Z,3.80
2019-01-09T04:50:23.305Z,3.57
2019-01-09T04:56:29.165Z,4.27
2019-01-09T05:02:34.954Z,4.13
2019-01-09T05:08:40.815Z,4.60
2019-01-09T05:14:46.969Z,4.30
2019-01-09T05:20:53.069Z,4.37
2019-01-09T05:26:58.791Z,4.10
2019-01-09T05:33:18.691Z,4.30
2019-01-09T05:39:24.616Z,4.43
2019-01-09T05:45:30.369Z,3.97
2019-01-09T05:51:36.303Z,4.27
2019-01-09T05:57:42.493Z,4.00
2019-01-09T06:03:48.647Z,4.40
2019-01-09T06:09:54.680Z,4.63
2019-01-09T06:16:00.579Z,4.40
2019-01-09T06:22:06.496Z,4.10
2019-01-09T06:28:12.392Z,4.23
2019-01-09T06:34:18.297Z,4.93
2019-01-09T06:40:24.250Z,3.23
2019-01-09T06:46:30.008Z,2.33
2019-01-09T06:52:36.025Z,1.33
2019-01-09T06:58:42.018Z,2.40
2019-01-09T07:04:47.761Z,1.90
2019-01-09T07:11:02.587Z,3.20
2019-01-09T07:17:08.757Z,3.10
2019-01-09T07:23:14.860Z,4.97
2019-01-09T07:29:20.711Z,4.53
2019-01-09T07:35:26.460Z,5.20
2019-01-09T07:41:32.643Z,4.80
2019-01-09T07:47:38.500Z,5.23
2019-01-09T07:53:44.580Z,4.90
2019-01-09T07:59:50.596Z,4.27
2019-01-09T08:05:56.535Z,4.10
2019-01-09T08:12:02.335Z,5.20
2019-01-09T08:18:08.288Z,5.27
2019-01-09T08:24:18.959Z,3.80
2019-01-09T08:30:24.666Z,3.60
2019-01-09T08:36:30.405Z,3.97
2019-01-09T08:42:44.219Z,3.27
2019-01-09T08:48:50.163Z,3.83
2019-01-09T08:54:56.403Z,3.23
2019-01-09T09:01:02.542Z,3.93
2019-01-09T09:07:08.635Z,3.97
2019-01-09T09:13:34.012Z,4.00
2019-01-09T09:19:39.829Z,3.20
2019-01-09T09:25:45.526Z,3.20
2019-01-09T09:31:51.482Z,3.43
2019-01-09T09:37:58.639Z,3.57
2019-01-09T09:44:04.445Z,2.70
2019-01-09T09:50:12.705Z,2.97
2019-01-09T09:56:18.828Z,2.77
2019-01-09T10:02:24.941Z,2.90
2019-01-09T10:08:30.922Z,3.10
2019-01-09T10:14:36.663Z,2.97
2019-01-09T10:20:46.265Z,2.90
2019-01-09T10:26:54.106Z,3.17
2019-01-09T10:32:59.735Z,3.30
2019-01-09T10:39:09.744Z,2.80
2019-01-09T10:45:19.233Z,3.73
2019-01-09T10:51:25.459Z,2.80
2019-01-09T10:57:31.206Z,2.77
2019-01-09T11:03:36.908Z,2.80
2019-01-09T11:09:42.650Z,2.20
2019-01-09T11:15:48.366Z,2.40
2019-01-09T11:21:54.134Z,2.17
2019-01-09T11:27:59.894Z,2.73
2019-01-09T11:34:05.684Z,2.60
2019-01-09T11:40:12.662Z,1.70
2019-01-09T11:46:18.386Z,2.50
2019-01-09T11:52:24.162Z,2.33
2019-01-09T11:58:29.922Z,2.00
2019-01-09T12:04:35.650Z,2.00
2019-01-09T12:10:41.351Z,2.13
2019-01-09T12:16:47.101Z,2.43
2019-01-09T12:22:52.933Z,2.00
2019-01-09T12:28:59.092Z,2.50
2019-01-09T12:35:04.988Z,2.23
2019-01-09T12:41:10.731Z,2.33
2019-01-09T12:47:16.514Z,1.90
2019-01-09T12:53:22.286Z,2.00
2019-01-09T12:59:28.679Z,1.37
2019-01-09T13:05:34.437Z,1.60
2019-01-09T13:11:40.189Z,1.90
2019-01-09T13:17:45.972Z,2.13
2019-01-09T13:23:51.781Z,2.10
2019-01-09T13:29:57.481Z,1.67
2019-01-09T13:36:04.016Z,1.77
2019-01-09T13:42:09.794Z,1.40
2019-01-09T13:48:15.532Z,1.97
2019-01-09T13:54:21.307Z,1.60
2019-01-09T14:00:27.115Z,1.90
2019-01-09T14:06:32.983Z,1.70
2019-01-09T14:12:38.771Z,1.27
2019-01-09T14:18:44.467Z,1.27
2019-01-09T14:24:50.215Z,1.87
2019-01-09T14:30:56.120Z,1.77
2019-01-09T14:37:01.977Z,1.90
2019-01-09T14:43:07.828Z,1.67
2019-01-09T14:49:13.559Z,2.17
2019-01-09T14:55:19.822Z,1.27
2019-01-09T15:01:25.578Z,1.77
2019-01-09T15:07:31.286Z,1.60
2019-01-09T15:13:37.031Z,1.83
2019-01-09T15:19:42.975Z,1.93
2019-01-09T15:25:49.140Z,2.10
2019-01-09T15:31:55.365Z,1.73
2019-01-09T15:38:01.293Z,1.80
2019-01-09T15:44:07.492Z,1.73
2019-01-09T15:50:16.511Z,1.80
2019-01-09T15:56:22.326Z,2.50
2019-01-09T16:02:28.126Z,1.90
2019-01-09T16:08:33.903Z,2.73
2019-01-09T16:14:39.852Z,1.90
2019-01-09T16:20:45.569Z,1.40
2019-01-09T16:26:51.459Z,1.73
2019-01-09T16:32:57.287Z,2.23
2019-01-09T16:39:05.392Z,2.03
2019-01-09T16:45:12.141Z,2.93
2019-01-09T16:51:17.890Z,3.30
2019-01-09T16:57:23.778Z,5.50
2019-01-09T17:03:29.684Z,7.77
2019-01-09T17:09:37.905Z,4.50
2019-01-09T17:15:43.912Z,4.67
2019-01-09T17:21:49.630Z,3.20
2019-01-09T17:27:55.430Z,3.10
2019-01-09T17:34:01.609Z,3.73
2019-01-09T17:40:08.689Z,2.37
2019-01-09T17:46:14.902Z,3.73
2019-01-09T17:52:20.650Z,2.20
2019-01-09T17:58:26.483Z,5.70
2019-01-09T18:04:32.226Z,2.97
2019-01-09T18:10:38.066Z,2.20
2019-01-09T18:16:44.112Z,2.67
2019-01-09T18:22:49.990Z,3.07
2019-01-09T18:28:55.711Z,4.63
2019-01-09T18:35:28.862Z,2.50
2019-01-09T18:42:12.299Z,3.17
2019-01-09T18:49:21.541Z,2.23
2019-01-09T18:55:27.268Z,3.30
2019-01-09T19:01:33.249Z,2.97
2019-01-09T19:07:39.056Z,3.13
2019-01-09T19:13:45.128Z,4.10
2019-01-09T19:19:50.995Z,3.73
2019-01-09T19:25:56.803Z,3.63
2019-01-09T19:32:02.652Z,3.27
2019-01-09T19:38:08.562Z,3.60
2019-01-09T19:44:14.497Z,3.30
2019-01-09T19:50:23.510Z,2.97
2019-01-09T19:56:29.586Z,2.63
2019-01-09T20:02:35.462Z,3.00
2019-01-09T20:08:41.418Z,2.50
2019-01-09T20:14:48.189Z,3.00
2019-01-09T20:20:54.165Z,3.10
2019-01-09T20:26:59.989Z,3.53
2019-01-09T20:33:05.939Z,3.43
2019-01-09T20:39:11.749Z,2.97
2019-01-09T20:45:18.480Z,3.40
2019-01-09T20:51:24.664Z,2.70
2019-01-09T20:57:30.569Z,3.47
2019-01-09T21:03:36.526Z,2.67
2019-01-09T21:09:42.316Z,2.80
2019-01-09T21:15:48.586Z,2.83
2019-01-09T21:21:54.533Z,3.43
2019-01-09T21:28:01.856Z,3.40
2019-01-09T21:34:07.793Z,3.70
2019-01-09T21:40:23.964Z,3.63
2019-01-09T21:46:30.319Z,4.20
2019-01-09T21:52:36.198Z,3.20
2019-01-09T21:58:42.365Z,3.63
2019-01-09T22:04:48.433Z,4.03
2019-01-09T22:10:54.392Z,3.83
2019-01-09T22:17:00.381Z,3.77
2019-01-09T22:23:06.440Z,3.70
2019-01-09T22:29:12.281Z,3.20
2019-01-09T22:35:18.139Z,3.57
2019-01-09T22:41:24.300Z,4.07
2019-01-09T22:47:30.296Z,3.20
2019-01-09T22:53:36.364Z,3.23
2019-01-09T22:59:42.088Z,4.07
2019-01-09T23:05:48.265Z,3.13
2019-01-09T23:11:54.137Z,3.33
2019-01-09T23:17:59.925Z,3.27
2019-01-09T23:24:05.856Z,3.50
2019-01-09T23:30:12.594Z,3.20
2019-01-09T23:36:18.548Z,3.23
2019-01-09T23:42:30.197Z,2.97
2019-01-09T23:48:32.375Z,3.73
2019-01-09T23:54:38.130Z,3.20
